createdAt,value
2023-07-15T00:01:37.996Z,24.90
2023-07-15T00:04:14.770Z,23.90
2023-07-15T00:06:42.966Z,23.90
2023-07-15T00:09:10.774Z,23.90
2023-07-15T00:11:47.123Z,24.00
2023-07-15T00:14:23.525Z,23.90
2023-07-15T00:16:51.572Z,23.80
2023-07-15T00:19:19.983Z,23.90
2023-07-15T00:21:48.149Z,23.80
2023-07-15T00:24:15.783Z,23.50
2023-07-15T00:26:42.854Z,23.40
2023-07-15T00:29:09.924Z,25.40
2023-07-15T00:31:37.644Z,24.10
2023-07-15T00:34:05.668Z,23.60
2023-07-15T00:36:34.397Z,23.60
2023-07-15T00:39:01.695Z,23.60
2023-07-15T00:41:34.784Z,22.70
2023-07-15T00:44:02.986Z,23.50
2023-07-15T00:47:10.033Z,23.70
2023-07-15T00:49:37.417Z,23.60
2023-07-15T00:52:24.416Z,23.60
2023-07-15T00:54:55.307Z,23.60
2023-07-15T00:57:24.878Z,23.50
2023-07-15T00:59:54.466Z,23.40
2023-07-15T01:02:22.114Z,23.40
2023-07-15T01:04:51.163Z,22.90
2023-07-15T01:07:18.412Z,23.40
2023-07-15T01:09:48.086Z,23.30
2023-07-15T01:12:15.171Z,25.20
2023-07-15T01:14:43.985Z,22.20
2023-07-15T01:17:11.236Z,23.90
2023-07-15T01:19:38.318Z,23.10
2023-07-15T01:22:07.494Z,23.40
2023-07-15T01:24:37.197Z,23.30
2023-07-15T01:27:09.445Z,21.90
2023-07-15T01:29:36.467Z,23.30
2023-07-15T01:32:03.511Z,23.30
2023-07-15T01:34:32.030Z,23.30
2023-07-15T01:37:01.252Z,23.50
2023-07-15T01:39:28.549Z,22.50
2023-07-15T01:41:56.668Z,22.50
2023-07-15T01:44:25.932Z,23.10
2023-07-15T01:46:53.196Z,23.20
2023-07-15T01:49:20.205Z,23.20
2023-07-15T01:51:47.202Z,23.10
2023-07-15T01:54:14.358Z,23.10
2023-07-15T01:56:42.298Z,23.10
2023-07-15T01:59:11.644Z,23.00
2023-07-15T02:01:41.989Z,22.80
2023-07-15T02:04:09.094Z,23.60
2023-07-15T02:06:36.224Z,22.80
2023-07-15T02:09:08.883Z,23.20
2023-07-15T02:11:36.259Z,22.70
2023-07-15T02:14:03.595Z,22.50
2023-07-15T02:16:30.936Z,22.90
2023-07-15T02:19:00.128Z,23.00
2023-07-15T02:21:27.307Z,23.00
2023-07-15T02:23:54.823Z,22.50
2023-07-15T02:26:22.061Z,23.10
2023-07-15T02:28:49.317Z,22.80
2023-07-15T02:31:16.992Z,22.80
2023-07-15T02:33:44.296Z,22.90
2023-07-15T02:36:11.431Z,22.80
2023-07-15T02:38:38.474Z,22.70
2023-07-15T02:41:05.551Z,22.60
2023-07-15T02:43:33.157Z,23.20
2023-07-15T02:46:00.262Z,22.70
2023-07-15T02:48:28.280Z,22.60
2023-07-15T02:50:56.797Z,21.50
2023-07-15T02:53:23.976Z,21.50
2023-07-15T02:55:54.661Z,22.70
2023-07-15T02:58:23.156Z,22.50
2023-07-15T03:00:53.065Z,22.50
2023-07-15T03:03:21.650Z,23.00
2023-07-15T03:05:52.921Z,22.60
2023-07-15T03:08:20.907Z,22.50
2023-07-15T03:10:50.956Z,22.30
2023-07-15T03:13:18.379Z,20.50
2023-07-15T03:15:45.696Z,23.00
2023-07-15T03:18:13.030Z,22.40
2023-07-15T03:20:40.261Z,22.30
2023-07-15T03:23:07.433Z,22.30
2023-07-15T03:25:36.754Z,22.30
2023-07-15T03:28:03.968Z,22.30
2023-07-15T03:30:31.051Z,22.40
2023-07-15T03:32:58.924Z,22.40
2023-07-15T03:35:26.358Z,22.30
2023-07-15T03:37:53.476Z,22.20
2023-07-15T03:40:20.958Z,22.30
2023-07-15T03:42:47.963Z,21.50
2023-07-15T03:45:15.046Z,22.10
2023-07-15T03:47:42.198Z,21.80
2023-07-15T03:50:10.712Z,22.90
2023-07-15T03:52:38.290Z,22.30
2023-07-15T03:55:07.051Z,22.10
2023-07-15T03:57:34.706Z,22.10
2023-07-15T04:00:02.026Z,22.10
2023-07-15T04:02:40.850Z,22.00
2023-07-15T04:05:08.577Z,21.90
2023-07-15T04:07:35.666Z,22.00
2023-07-15T04:10:03.060Z,22.00
2023-07-15T04:12:30.055Z,22.10
2023-07-15T04:14:57.085Z,22.00
2023-07-15T04:17:24.120Z,21.90
2023-07-15T04:19:51.194Z,22.10
2023-07-15T04:22:18.692Z,23.10
2023-07-15T04:24:45.778Z,21.20
2023-07-15T04:27:12.744Z,21.80
2023-07-15T04:29:39.824Z,22.10
2023-07-15T04:32:07.110Z,21.90
2023-07-15T04:34:34.378Z,21.90
2023-07-15T04:37:01.432Z,21.80
2023-07-15T04:39:28.787Z,21.70
2023-07-15T04:41:56.217Z,21.70
2023-07-15T04:44:23.433Z,21.80
2023-07-15T04:46:50.792Z,21.70
2023-07-15T04:49:18.980Z,22.00
2023-07-15T04:51:46.389Z,21.80
2023-07-15T04:54:13.622Z,21.50
2023-07-15T04:56:41.056Z,21.50
2023-07-15T04:59:09.593Z,22.30
2023-07-15T05:01:36.989Z,21.70
2023-07-15T05:04:05.178Z,22.20
2023-07-15T05:06:32.871Z,21.70
2023-07-15T05:09:00.031Z,21.70
2023-07-15T05:11:30.085Z,21.70
2023-07-15T05:13:57.188Z,21.70
2023-07-15T05:16:24.249Z,21.70
2023-07-15T05:18:51.427Z,21.70
2023-07-15T05:21:18.878Z,21.00
2023-07-15T05:23:46.204Z,21.70
2023-07-15T05:26:13.273Z,21.70
2023-07-15T05:28:40.451Z,21.80
2023-07-15T05:31:10.473Z,21.80
2023-07-15T05:33:37.575Z,21.50
2023-07-15T05:36:04.919Z,21.40
2023-07-15T05:38:42.255Z,21.40
2023-07-15T05:41:10.417Z,21.50
2023-07-15T05:43:37.487Z,21.60
2023-07-15T05:46:04.512Z,21.50
2023-07-15T05:48:31.566Z,20.90
2023-07-15T05:50:58.658Z,21.40
2023-07-15T05:53:26.046Z,21.60
2023-07-15T05:55:54.844Z,21.70
2023-07-15T05:58:23.677Z,21.60
2023-07-15T06:00:52.560Z,21.70
2023-07-15T06:03:20.046Z,22.30
2023-07-15T06:05:47.165Z,21.70
2023-07-15T06:08:14.229Z,21.50
2023-07-15T06:10:44.150Z,21.60
2023-07-15T06:13:14.394Z,22.40
2023-07-15T06:15:43.818Z,22.30
2023-07-15T06:18:10.996Z,22.10
2023-07-15T06:20:41.170Z,22.10
2023-07-15T06:23:08.203Z,22.10
2023-07-15T06:25:41.084Z,22.00
2023-07-15T06:28:08.128Z,22.50
2023-07-15T06:30:35.199Z,22.40
2023-07-15T06:33:02.280Z,25.00
2023-07-15T06:35:29.314Z,22.40
2023-07-15T06:37:56.314Z,22.30
2023-07-15T06:40:23.531Z,22.80
2023-07-15T06:42:50.774Z,23.00
2023-07-15T06:45:21.287Z,22.90
2023-07-15T06:47:48.528Z,23.30
2023-07-15T06:50:15.887Z,23.60
2023-07-15T06:52:43.003Z,23.20
2023-07-15T06:55:10.140Z,23.20
2023-07-15T06:57:37.495Z,22.80
2023-07-15T07:00:06.162Z,22.90
2023-07-15T07:02:33.470Z,22.80
2023-07-15T07:05:00.615Z,22.70
2023-07-15T07:07:27.716Z,23.20
2023-07-15T07:09:54.683Z,22.90
2023-07-15T07:12:23.510Z,22.70
2023-07-15T07:14:51.479Z,22.40
2023-07-15T07:17:18.507Z,23.10
2023-07-15T07:19:47.313Z,23.00
2023-07-15T07:22:14.601Z,22.90
2023-07-15T07:24:41.620Z,23.20
2023-07-15T07:27:08.994Z,23.10
2023-07-15T07:29:36.164Z,23.00
2023-07-15T07:32:03.542Z,23.20
2023-07-15T07:34:30.576Z,23.00
2023-07-15T07:36:57.880Z,23.60
2023-07-15T07:39:25.053Z,23.30
2023-07-15T07:41:52.699Z,23.70
2023-07-15T07:44:19.774Z,24.20
2023-07-15T07:46:46.874Z,24.10
2023-07-15T07:49:14.250Z,24.10
2023-07-15T07:51:41.354Z,24.50
2023-07-15T07:54:08.388Z,23.30
2023-07-15T07:56:36.222Z,24.80
2023-07-15T07:59:03.772Z,25.20
2023-07-15T08:01:32.298Z,25.20
2023-07-15T08:03:59.611Z,25.30
2023-07-15T08:06:26.749Z,25.10
2023-07-15T08:08:54.290Z,25.40
2023-07-15T08:13:48.832Z,25.60
2023-07-15T08:16:48.564Z,25.70
2023-07-15T08:19:15.593Z,26.10
2023-07-15T08:21:42.716Z,25.90
2023-07-15T08:24:09.945Z,26.70
2023-07-15T08:26:37.290Z,26.30
2023-07-15T08:29:04.550Z,26.40
2023-07-15T08:31:31.625Z,26.30
2023-07-15T08:33:58.711Z,26.60
2023-07-15T08:36:25.761Z,25.90
2023-07-15T08:38:54.168Z,25.80
2023-07-15T08:41:25.469Z,25.80
2023-07-15T08:43:53.179Z,26.60
2023-07-15T08:46:32.099Z,26.70
2023-07-15T08:49:01.041Z,27.00
2023-07-15T08:51:35.261Z,27.80
2023-07-15T08:54:04.650Z,28.00
2023-07-15T08:56:35.749Z,27.60
2023-07-15T08:59:07.717Z,27.20
2023-07-15T09:01:38.319Z,28.20
2023-07-15T09:04:05.832Z,27.20
2023-07-15T09:06:33.668Z,27.60
2023-07-15T09:09:00.717Z,26.90
2023-07-15T09:11:43.403Z,27.30
2023-07-15T09:14:17.747Z,27.50
2023-07-15T09:16:45.030Z,25.20
2023-07-15T09:19:12.646Z,27.60
2023-07-15T09:21:40.236Z,27.40
2023-07-15T09:24:07.355Z,28.00
2023-07-15T09:26:34.456Z,28.50
2023-07-15T09:29:04.165Z,28.20
2023-07-15T09:31:31.428Z,29.00
2023-07-15T09:34:05.096Z,28.70
2023-07-15T09:36:33.598Z,28.80
2023-07-15T09:39:23.606Z,27.80
2023-07-15T09:42:06.317Z,28.70
2023-07-15T09:44:42.263Z,29.60
2023-07-15T09:47:09.574Z,29.40
2023-07-15T09:49:37.294Z,30.50
2023-07-15T09:52:06.677Z,29.10
2023-07-15T09:54:35.250Z,28.60
2023-07-15T09:57:07.725Z,29.10
2023-07-15T09:59:49.019Z,28.70
2023-07-15T10:02:34.626Z,28.80
2023-07-15T10:05:06.325Z,29.00
2023-07-15T10:07:34.601Z,29.00
2023-07-15T10:10:02.071Z,28.90
2023-07-15T10:12:30.382Z,29.00
2023-07-15T10:14:58.122Z,29.10
2023-07-15T10:17:25.175Z,29.70
2023-07-15T10:20:03.892Z,28.30
2023-07-15T10:22:35.983Z,28.70
2023-07-15T10:25:05.926Z,29.20
2023-07-15T10:27:33.906Z,29.30
2023-07-15T10:30:20.628Z,29.30
2023-07-15T10:33:00.064Z,29.80
2023-07-15T10:35:28.387Z,29.60
2023-07-15T10:37:58.334Z,30.00
2023-07-15T10:40:58.334Z,28.40
2023-07-15T10:43:36.934Z,27.50
2023-07-15T10:46:18.867Z,29.00
2023-07-15T10:48:46.314Z,29.10
2023-07-15T10:51:13.588Z,29.80
2023-07-15T10:53:40.674Z,29.60
2023-07-15T10:56:10.924Z,29.00
2023-07-15T10:58:39.061Z,29.80
2023-07-15T11:01:12.069Z,29.40
2023-07-15T11:03:43.428Z,29.20
2023-07-15T11:06:11.786Z,29.80
2023-07-15T11:08:40.937Z,29.20
2023-07-15T11:11:13.980Z,30.40
2023-07-15T11:13:42.989Z,30.20
2023-07-15T11:16:10.371Z,31.20
2023-07-15T11:18:37.458Z,30.90
2023-07-15T11:21:04.840Z,31.10
2023-07-15T11:23:33.120Z,31.80
2023-07-15T11:26:10.009Z,32.40
2023-07-15T11:28:50.654Z,32.50
2023-07-15T11:31:22.138Z,32.40
2023-07-15T11:33:53.857Z,32.50
2023-07-15T11:36:20.977Z,31.90
2023-07-15T11:38:48.036Z,33.10
2023-07-15T11:41:15.070Z,31.60
2023-07-15T11:43:42.100Z,30.50
2023-07-15T11:46:09.235Z,31.40
2023-07-15T11:48:36.657Z,31.30
2023-07-15T11:51:08.515Z,31.00
2023-07-15T11:53:38.659Z,29.90
2023-07-15T11:56:09.376Z,31.00
2023-07-15T11:58:42.141Z,30.50
2023-07-15T12:01:17.316Z,30.50
2023-07-15T12:03:51.078Z,31.70
2023-07-15T12:06:20.813Z,30.60
2023-07-15T12:09:10.663Z,30.50
2023-07-15T12:11:38.852Z,32.10
2023-07-15T12:14:08.769Z,32.20
2023-07-15T12:16:39.482Z,33.40
2023-07-15T12:19:13.282Z,33.30
2023-07-15T12:21:41.260Z,33.70
2023-07-15T12:24:08.775Z,32.50
2023-07-15T12:26:35.836Z,32.60
2023-07-15T12:29:02.984Z,33.20
2023-07-15T12:31:30.769Z,33.30
2023-07-15T12:33:58.112Z,32.90
2023-07-15T12:36:25.128Z,32.90
2023-07-15T12:38:52.425Z,32.70
2023-07-15T12:41:19.722Z,33.90
2023-07-15T12:43:46.939Z,34.20
2023-07-15T12:46:14.313Z,34.30
2023-07-15T12:48:41.752Z,33.50
2023-07-15T12:51:09.052Z,34.20
2023-07-15T12:53:38.533Z,35.10
2023-07-15T12:56:06.182Z,34.50
2023-07-15T12:58:33.233Z,33.60
2023-07-15T13:01:01.441Z,34.60
2023-07-15T13:03:28.641Z,35.40
2023-07-15T13:05:56.109Z,35.80
2023-07-15T13:08:23.142Z,35.30
2023-07-15T13:10:54.081Z,36.00
2023-07-15T13:13:22.852Z,34.60
2023-07-15T13:15:50.755Z,33.10
2023-07-15T13:18:19.773Z,32.90
2023-07-15T13:20:46.898Z,34.30
2023-07-15T13:23:13.995Z,33.80
2023-07-15T13:25:41.117Z,33.90
2023-07-15T13:28:08.192Z,34.30
2023-07-15T13:30:35.474Z,33.80
2023-07-15T13:33:02.869Z,33.50
2023-07-15T13:35:29.896Z,33.30
2023-07-15T13:37:56.903Z,33.90
2023-07-15T13:40:24.403Z,34.70
2023-07-15T13:42:52.345Z,34.30
2023-07-15T13:45:20.338Z,34.50
2023-07-15T13:47:53.609Z,31.90
2023-07-15T13:50:21.297Z,33.10
2023-07-15T13:52:49.089Z,34.10
2023-07-15T13:55:17.965Z,33.90
2023-07-15T13:57:45.864Z,34.90
2023-07-15T14:00:14.750Z,34.40
2023-07-15T14:02:43.004Z,33.90
2023-07-15T14:05:11.275Z,34.20
2023-07-15T14:07:38.642Z,34.30
2023-07-15T14:10:07.203Z,34.20
2023-07-15T14:12:34.459Z,33.30
2023-07-15T14:15:01.581Z,33.10
2023-07-15T14:17:28.683Z,32.40
2023-07-15T14:19:56.704Z,32.30
2023-07-15T14:22:30.682Z,32.50
2023-07-15T14:25:06.623Z,33.10
2023-07-15T14:27:33.847Z,33.70
2023-07-15T14:30:01.334Z,33.90
2023-07-15T14:32:28.399Z,33.50
2023-07-15T14:34:55.725Z,33.40
2023-07-15T14:37:22.711Z,33.00
2023-07-15T14:39:49.749Z,33.00
2023-07-15T14:42:16.779Z,31.90
2023-07-15T14:44:43.815Z,31.60
2023-07-15T14:47:11.036Z,29.40
2023-07-15T14:49:38.135Z,30.70
2023-07-15T14:52:06.051Z,30.70
2023-07-15T14:54:33.226Z,30.80
2023-07-15T14:57:00.400Z,31.00
2023-07-15T14:59:27.463Z,31.10
2023-07-15T15:01:54.535Z,31.20
2023-07-15T15:04:21.626Z,31.90
2023-07-15T15:06:50.731Z,30.80
2023-07-15T15:09:19.399Z,30.80
2023-07-15T15:11:46.370Z,30.90
2023-07-15T15:14:13.359Z,30.40
2023-07-15T15:16:40.436Z,30.70
2023-07-15T15:19:07.584Z,31.20
2023-07-15T15:21:34.742Z,30.70
2023-07-15T15:24:01.835Z,30.50
2023-07-15T15:26:29.164Z,30.60
2023-07-15T15:28:56.110Z,31.20
2023-07-15T15:31:23.419Z,30.40
2023-07-15T15:33:50.383Z,30.70
2023-07-15T15:36:17.593Z,30.40
2023-07-15T15:38:44.748Z,30.40
2023-07-15T15:41:11.835Z,30.00
2023-07-15T15:43:39.104Z,30.70
2023-07-15T15:46:06.119Z,30.00
2023-07-15T15:48:33.180Z,29.70
2023-07-15T15:51:00.231Z,28.70
2023-07-15T15:53:27.286Z,30.10
2023-07-15T15:55:54.343Z,30.20
2023-07-15T15:58:21.382Z,30.10
2023-07-15T16:00:48.400Z,30.20
2023-07-15T16:03:15.584Z,30.30
2023-07-15T16:05:42.696Z,30.40
2023-07-15T16:08:09.684Z,30.50
2023-07-15T16:10:36.750Z,30.60
2023-07-15T16:13:03.849Z,30.20
2023-07-15T16:15:30.836Z,30.40
2023-07-15T16:17:57.871Z,30.50
2023-07-15T16:20:24.918Z,30.40
2023-07-15T16:22:51.967Z,29.50
2023-07-15T16:25:19.038Z,30.30
2023-07-15T16:27:46.508Z,30.30
2023-07-15T16:30:13.640Z,30.30
2023-07-15T16:32:40.759Z,30.70
2023-07-15T16:35:08.305Z,30.60
2023-07-15T16:37:35.266Z,30.50
2023-07-15T16:40:02.397Z,30.40
2023-07-15T16:42:29.527Z,30.40
2023-07-15T16:44:56.508Z,30.40
2023-07-15T16:47:23.560Z,30.00
2023-07-15T16:49:50.537Z,30.10
2023-07-15T16:52:17.616Z,31.90
2023-07-15T16:54:44.852Z,30.30
2023-07-15T16:57:11.861Z,30.30
2023-07-15T16:59:38.846Z,30.20
2023-07-15T17:02:06.131Z,30.40
2023-07-15T17:04:33.146Z,31.60
2023-07-15T17:07:00.206Z,30.10
2023-07-15T17:09:32.953Z,30.20
2023-07-15T17:12:04.347Z,30.10
2023-07-15T17:14:32.695Z,30.20
2023-07-15T17:17:00.185Z,29.90
2023-07-15T17:19:27.698Z,29.80
2023-07-15T17:21:54.825Z,30.10
2023-07-15T17:24:21.856Z,30.20
2023-07-15T17:26:49.140Z,30.00
2023-07-15T17:29:16.393Z,30.00
2023-07-15T17:31:43.569Z,30.30
2023-07-15T17:34:10.573Z,29.90
2023-07-15T17:36:37.885Z,29.80
2023-07-15T17:39:05.099Z,29.80
2023-07-15T17:41:32.400Z,28.80
2023-07-15T17:43:59.493Z,29.40
2023-07-15T17:46:26.648Z,29.80
2023-07-15T17:48:53.873Z,29.60
2023-07-15T17:51:20.984Z,29.90
2023-07-15T17:53:49.660Z,29.60
2023-07-15T17:56:16.726Z,29.40
2023-07-15T17:58:43.886Z,29.90
2023-07-15T18:01:10.865Z,29.90
2023-07-15T18:03:37.869Z,29.70
2023-07-15T18:06:05.062Z,29.80
2023-07-15T18:08:32.031Z,29.80
2023-07-15T18:10:59.252Z,29.90
2023-07-15T18:13:29.340Z,29.60
2023-07-15T18:15:56.483Z,29.10
2023-07-15T18:18:23.497Z,29.40
2023-07-15T18:20:50.482Z,29.50
2023-07-15T18:23:17.484Z,28.60
2023-07-15T18:25:44.449Z,28.50
2023-07-15T18:28:11.551Z,28.30
2023-07-15T18:30:40.629Z,28.50
2023-07-15T18:33:10.399Z,28.70
2023-07-15T18:35:38.149Z,28.90
2023-07-15T18:38:05.330Z,29.20
2023-07-15T18:40:32.319Z,29.10
2023-07-15T18:42:59.285Z,29.20
2023-07-15T18:45:26.289Z,29.30
2023-07-15T18:47:53.381Z,29.10
2023-07-15T18:50:20.470Z,30.40
2023-07-15T18:52:47.639Z,29.00
2023-07-15T18:55:14.737Z,29.10
2023-07-15T18:57:41.847Z,29.20
2023-07-15T19:00:10.622Z,29.10
2023-07-15T19:02:37.820Z,29.10
2023-07-15T19:05:06.904Z,28.70
2023-07-15T19:07:34.538Z,29.10
2023-07-15T19:10:01.622Z,29.10
2023-07-15T19:12:28.652Z,29.10
2023-07-15T19:14:56.004Z,29.00
2023-07-15T19:17:23.107Z,29.10
2023-07-15T19:19:50.268Z,29.00
2023-07-15T19:22:17.311Z,29.10
2023-07-15T19:24:44.394Z,29.30
2023-07-15T19:27:11.517Z,29.00
2023-07-15T19:29:39.294Z,28.90
2023-07-15T19:32:07.162Z,29.00
2023-07-15T19:34:34.426Z,28.90
2023-07-15T19:37:01.455Z,28.90
2023-07-15T19:39:28.548Z,28.90
2023-07-15T19:41:55.627Z,28.90
2023-07-15T19:44:22.755Z,29.70
2023-07-15T19:46:49.969Z,28.40
2023-07-15T19:49:17.489Z,29.40
2023-07-15T19:51:46.309Z,28.70
2023-07-15T19:54:14.309Z,28.70
2023-07-15T19:56:41.869Z,28.50
2023-07-15T20:01:36.446Z,27.60
2023-07-15T20:04:04.639Z,29.10
2023-07-15T20:06:31.858Z,28.20
2023-07-15T20:08:59.095Z,28.10
2023-07-15T20:11:26.281Z,28.10
2023-07-15T20:13:53.510Z,27.80
2023-07-15T20:16:20.723Z,28.30
2023-07-15T20:18:48.020Z,28.20
2023-07-15T20:21:15.650Z,28.40
2023-07-15T20:23:42.799Z,28.60
2023-07-15T20:26:09.944Z,28.10
2023-07-15T20:28:36.977Z,28.20
2023-07-15T20:31:03.997Z,28.10
2023-07-15T20:33:31.319Z,28.30
2023-07-15T20:35:58.398Z,28.40
2023-07-15T20:38:25.471Z,28.10
2023-07-15T20:40:57.498Z,28.30
2023-07-15T20:43:26.033Z,28.90
2023-07-15T20:45:53.373Z,28.10
2023-07-15T20:48:20.854Z,27.90
2023-07-15T20:50:47.901Z,27.90
2023-07-15T20:53:15.676Z,28.10
2023-07-15T20:55:43.126Z,28.10
2023-07-15T20:58:10.213Z,27.90
2023-07-15T21:00:37.251Z,28.00
2023-07-15T21:03:05.130Z,28.00
2023-07-15T21:05:32.515Z,28.20
2023-07-15T21:07:59.585Z,27.90
2023-07-15T21:10:27.222Z,27.90
2023-07-15T21:12:54.638Z,27.90
2023-07-15T21:15:21.657Z,27.50
2023-07-15T21:17:48.808Z,27.70
2023-07-15T21:20:17.059Z,27.80
2023-07-15T21:22:44.569Z,27.70
2023-07-15T21:25:11.939Z,26.90
2023-07-15T21:27:39.180Z,27.40
2023-07-15T21:30:06.954Z,27.40
2023-07-15T21:32:34.064Z,27.20
2023-07-15T21:35:01.239Z,27.40
2023-07-15T21:37:28.345Z,28.00
2023-07-15T21:39:55.368Z,27.20
2023-07-15T21:42:22.423Z,27.30
2023-07-15T21:44:49.695Z,27.20
2023-07-15T21:47:16.668Z,27.30
2023-07-15T21:49:43.659Z,27.20
2023-07-15T21:52:10.787Z,27.10
2023-07-15T21:54:37.852Z,27.20
2023-07-15T21:57:05.365Z,27.10
2023-07-15T21:59:32.533Z,27.20
2023-07-15T22:01:59.569Z,27.20
2023-07-15T22:04:26.564Z,27.10
2023-07-15T22:06:53.628Z,27.00
2023-07-15T22:09:20.618Z,27.20
2023-07-15T22:11:47.680Z,27.10
2023-07-15T22:14:16.866Z,27.10
2023-07-15T22:16:43.981Z,26.90
2023-07-15T22:19:11.300Z,25.80
2023-07-15T22:21:39.717Z,27.60
2023-07-15T22:24:06.851Z,26.80
2023-07-15T22:26:34.057Z,26.80
2023-07-15T22:29:01.005Z,27.00
2023-07-15T22:31:28.128Z,26.60
2023-07-15T22:33:55.316Z,26.70
2023-07-15T22:36:22.278Z,26.50
2023-07-15T22:38:49.311Z,26.60
2023-07-15T22:43:44.024Z,26.70
2023-07-15T22:46:11.022Z,26.20
2023-07-15T22:48:39.238Z,26.20
2023-07-15T22:51:06.338Z,26.30
2023-07-15T22:53:33.477Z,26.40
2023-07-15T22:56:00.434Z,28.20
2023-07-15T22:58:27.508Z,26.40
2023-07-15T23:00:57.608Z,27.40
2023-07-15T23:03:25.304Z,26.20
2023-07-15T23:05:52.646Z,26.30
2023-07-15T23:08:19.657Z,26.20
2023-07-15T23:10:48.397Z,26.60
2023-07-15T23:13:15.809Z,26.10
2023-07-15T23:15:42.988Z,25.60
2023-07-15T23:18:10.107Z,24.80
2023-07-15T23:20:37.172Z,25.00
2023-07-15T23:23:16.525Z,25.50
2023-07-15T23:28:20.284Z,24.80
2023-07-15T23:30:50.964Z,24.80
2023-07-15T23:33:18.458Z,25.00
2023-07-15T23:35:45.967Z,24.90
2023-07-15T23:38:13.569Z,25.00
2023-07-15T23:40:40.919Z,24.80
2023-07-15T23:43:07.975Z,24.60
2023-07-15T23:45:36.525Z,24.80
2023-07-15T23:48:04.137Z,24.90
2023-07-15T23:50:32.809Z,24.70
2023-07-15T23:52:59.827Z,24.70
2023-07-15T23:55:26.828Z,25.00
2023-07-15T23:57:53.816Z,24.80
